createdAt,value
2022-11-29T00:00:15.992Z,2.43
2022-11-29T00:01:14.529Z,2.41
2022-11-29T00:01:47.879Z,2.41
2022-11-29T00:02:21.547Z,2.40
2022-11-29T00:02:55.630Z,2.44
2022-11-29T00:03:30.177Z,2.44
2022-11-29T00:04:04.420Z,2.48
2022-11-29T00:04:38.101Z,2.51
2022-11-29T00:05:11.617Z,2.52
2022-11-29T00:05:46.377Z,2.51
2022-11-29T00:06:23.731Z,2.49
2022-11-29T00:06:57.291Z,2.50
2022-11-29T00:07:30.751Z,2.54
2022-11-29T00:08:04.388Z,2.53
2022-11-29T00:08:37.732Z,2.54
2022-11-29T00:09:13.694Z,2.57
2022-11-29T00:09:47.134Z,2.55
2022-11-29T00:10:21.018Z,2.54
2022-11-29T00:10:54.441Z,2.53
2022-11-29T00:11:49.167Z,2.53
2022-11-29T00:12:22.603Z,2.52
2022-11-29T00:12:55.839Z,2.55
2022-11-29T00:13:29.368Z,2.60
2022-11-29T00:14:03.422Z,2.59
2022-11-29T00:14:37.003Z,2.58
2022-11-29T00:15:10.410Z,2.58
2022-11-29T00:15:43.856Z,2.61
2022-11-29T00:16:17.484Z,2.62
2022-11-29T00:16:53.745Z,2.61
2022-11-29T00:17:27.343Z,2.62
2022-11-29T00:18:00.585Z,2.62
2022-11-29T00:18:34.485Z,2.64
2022-11-29T00:19:09.184Z,2.66
2022-11-29T00:19:42.885Z,2.66
2022-11-29T00:20:16.206Z,2.63
2022-11-29T00:20:49.728Z,2.66
2022-11-29T00:21:23.127Z,2.72
2022-11-29T00:21:56.725Z,2.70
2022-11-29T00:22:30.439Z,2.71
2022-11-29T00:23:03.842Z,2.72
2022-11-29T00:23:37.094Z,2.76
2022-11-29T00:24:10.657Z,2.74
2022-11-29T00:24:44.406Z,2.73
2022-11-29T00:25:18.125Z,2.79
2022-11-29T00:25:52.117Z,2.81
2022-11-29T00:26:26.013Z,2.80
2022-11-29T00:27:00.731Z,2.78
2022-11-29T00:27:34.102Z,2.77
2022-11-29T00:28:07.404Z,2.74
2022-11-29T00:28:42.755Z,2.74
2022-11-29T00:29:16.133Z,2.73
2022-11-29T00:29:49.368Z,2.74
2022-11-29T00:30:23.102Z,2.73
2022-11-29T00:30:57.038Z,2.73
2022-11-29T00:31:32.817Z,2.73
2022-11-29T00:32:06.191Z,2.71
2022-11-29T00:32:39.510Z,2.71
2022-11-29T00:33:12.843Z,2.71
2022-11-29T00:33:50.307Z,2.70
2022-11-29T00:34:23.678Z,2.69
2022-11-29T00:34:59.501Z,2.69
2022-11-29T00:35:33.240Z,2.69
2022-11-29T00:36:07.024Z,2.69
2022-11-29T00:36:41.286Z,2.70
2022-11-29T00:37:15.787Z,2.70
2022-11-29T00:37:49.053Z,2.70
2022-11-29T00:38:22.431Z,2.71
2022-11-29T00:38:56.036Z,2.70
2022-11-29T00:39:29.403Z,2.71
2022-11-29T00:40:04.073Z,2.72
2022-11-29T00:40:37.488Z,2.72
2022-11-29T00:41:12.075Z,2.72
2022-11-29T00:41:45.954Z,2.71
2022-11-29T00:42:20.948Z,2.72
2022-11-29T00:42:54.881Z,2.72
2022-11-29T00:43:28.462Z,2.72
2022-11-29T00:44:01.950Z,2.72
2022-11-29T00:44:35.379Z,2.70
2022-11-29T00:45:09.718Z,2.69
2022-11-29T00:45:43.729Z,2.66
2022-11-29T00:46:17.434Z,2.68
2022-11-29T00:46:50.843Z,2.67
2022-11-29T00:47:24.493Z,2.67
2022-11-29T00:47:57.994Z,2.66
2022-11-29T00:48:31.342Z,2.64
2022-11-29T00:49:05.085Z,2.65
2022-11-29T00:49:38.417Z,2.65
2022-11-29T00:50:11.988Z,2.65
2022-11-29T00:50:45.485Z,2.65
2022-11-29T00:51:19.600Z,2.65
2022-11-29T00:51:53.213Z,2.67
2022-11-29T00:52:26.558Z,2.67
2022-11-29T00:53:00.010Z,2.68
2022-11-29T00:53:35.283Z,2.67
2022-11-29T00:54:08.986Z,2.59
2022-11-29T00:54:42.608Z,2.68
2022-11-29T00:55:17.957Z,2.67
2022-11-29T00:55:52.964Z,2.67
2022-11-29T00:56:26.383Z,2.67
2022-11-29T00:56:59.826Z,2.67
2022-11-29T00:57:33.082Z,2.70
2022-11-29T00:58:06.646Z,2.70
2022-11-29T00:58:40.238Z,2.70
2022-11-29T00:59:13.503Z,2.71
2022-11-29T00:59:46.892Z,2.68
2022-11-29T01:00:20.763Z,2.65
2022-11-29T01:00:54.887Z,2.67
2022-11-29T01:01:28.641Z,2.66
2022-11-29T01:02:02.274Z,2.65
2022-11-29T01:02:35.748Z,2.65
2022-11-29T01:03:09.510Z,2.68
2022-11-29T01:03:43.301Z,2.59
2022-11-29T01:04:17.048Z,2.66
2022-11-29T01:04:50.265Z,2.64
2022-11-29T01:05:24.270Z,2.61
2022-11-29T01:06:06.069Z,2.59
2022-11-29T01:06:39.692Z,2.57
2022-11-29T01:07:13.333Z,2.57
2022-11-29T01:07:46.828Z,2.57
2022-11-29T01:08:20.292Z,2.58
2022-11-29T01:08:54.223Z,2.60
2022-11-29T01:09:27.481Z,2.58
2022-11-29T01:10:01.121Z,2.56
2022-11-29T01:10:34.723Z,2.54
2022-11-29T01:11:16.023Z,2.53
2022-11-29T01:11:50.145Z,2.53
2022-11-29T01:12:23.451Z,2.54
2022-11-29T01:12:56.651Z,2.55
2022-11-29T01:13:30.122Z,2.55
2022-11-29T01:14:04.362Z,2.56
2022-11-29T01:14:37.720Z,2.58
2022-11-29T01:15:11.473Z,2.58
2022-11-29T01:15:45.298Z,2.59
2022-11-29T01:16:19.150Z,2.60
2022-11-29T01:16:52.555Z,2.60
2022-11-29T01:17:29.229Z,2.61
2022-11-29T01:18:02.634Z,2.62
2022-11-29T01:18:37.219Z,2.64
2022-11-29T01:19:12.855Z,2.61
2022-11-29T01:19:50.649Z,2.61
2022-11-29T01:20:24.758Z,2.62
2022-11-29T01:21:09.763Z,2.61
2022-11-29T01:21:42.994Z,2.53
2022-11-29T01:22:16.358Z,2.50
2022-11-29T01:22:49.791Z,2.48
2022-11-29T01:23:23.154Z,2.43
2022-11-29T01:23:57.027Z,2.44
2022-11-29T01:24:31.359Z,2.42
2022-11-29T01:25:07.331Z,2.42
2022-11-29T01:25:41.326Z,2.41
2022-11-29T01:26:18.574Z,2.38
2022-11-29T01:26:52.526Z,2.31
2022-11-29T01:27:26.322Z,2.33
2022-11-29T01:28:00.707Z,2.30
2022-11-29T01:28:35.015Z,2.26
2022-11-29T01:29:08.428Z,2.23
2022-11-29T01:29:42.006Z,2.21
2022-11-29T01:30:16.036Z,2.20
2022-11-29T01:30:49.485Z,2.20
2022-11-29T01:31:28.646Z,2.20
2022-11-29T01:32:02.243Z,2.19
2022-11-29T01:32:39.076Z,2.21
2022-11-29T01:33:12.483Z,2.23
2022-11-29T01:33:46.032Z,2.23
2022-11-29T01:34:19.357Z,2.22
2022-11-29T01:34:52.608Z,2.23
2022-11-29T01:35:25.899Z,2.24
2022-11-29T01:35:59.380Z,2.24
2022-11-29T01:36:33.303Z,2.25
2022-11-29T01:37:06.737Z,2.27
2022-11-29T01:37:40.230Z,2.28
2022-11-29T01:38:13.605Z,2.30
2022-11-29T01:38:46.826Z,2.32
2022-11-29T01:39:20.041Z,2.32
2022-11-29T01:39:53.286Z,2.32
2022-11-29T01:40:26.575Z,2.33
2022-11-29T01:41:07.132Z,2.34
2022-11-29T01:41:40.276Z,2.35
2022-11-29T01:42:14.358Z,2.36
2022-11-29T01:42:47.864Z,2.38
2022-11-29T01:43:21.555Z,2.40
2022-11-29T01:44:26.973Z,2.40
2022-11-29T01:45:04.882Z,2.36
2022-11-29T01:45:40.602Z,2.37
2022-11-29T01:46:13.857Z,2.39
2022-11-29T01:46:49.348Z,2.40
2022-11-29T01:47:23.999Z,2.41
2022-11-29T01:47:58.129Z,2.42
2022-11-29T01:48:32.886Z,2.42
2022-11-29T01:49:14.159Z,2.44
2022-11-29T01:49:49.483Z,2.43
2022-11-29T01:50:23.038Z,2.44
2022-11-29T01:51:00.910Z,2.45
2022-11-29T01:51:36.159Z,2.45
2022-11-29T01:52:19.804Z,2.46
2022-11-29T01:52:53.553Z,2.46
2022-11-29T01:53:28.107Z,2.45
2022-11-29T01:54:02.282Z,2.46
2022-11-29T01:54:40.258Z,2.48
2022-11-29T01:55:14.533Z,2.48
2022-11-29T01:55:53.639Z,2.49
2022-11-29T01:56:29.493Z,2.50
2022-11-29T01:57:05.740Z,2.51
2022-11-29T01:57:41.218Z,2.52
2022-11-29T01:58:15.533Z,2.52
2022-11-29T01:58:49.191Z,2.53
2022-11-29T01:59:25.903Z,2.54
2022-11-29T02:00:07.622Z,2.54
2022-11-29T02:00:46.605Z,2.55
2022-11-29T02:01:20.207Z,2.55
2022-11-29T02:02:00.696Z,2.57
2022-11-29T02:02:42.876Z,2.57
2022-11-29T02:03:18.113Z,2.57
2022-11-29T02:03:51.379Z,2.57
2022-11-29T02:04:24.644Z,2.58
2022-11-29T02:04:59.624Z,2.60
2022-11-29T02:05:33.498Z,2.61
2022-11-29T02:06:08.141Z,2.61
2022-11-29T02:06:42.097Z,2.62
2022-11-29T02:07:15.842Z,2.63
2022-11-29T02:07:52.783Z,2.64
2022-11-29T02:08:33.663Z,2.65
2022-11-29T02:09:19.901Z,2.64
2022-11-29T02:09:53.102Z,2.62
2022-11-29T02:10:41.047Z,2.62
2022-11-29T02:11:29.771Z,2.62
2022-11-29T02:12:21.792Z,2.61
2022-11-29T02:13:18.007Z,2.58
2022-11-29T02:13:56.863Z,2.58
2022-11-29T02:14:57.699Z,2.57
2022-11-29T02:15:43.699Z,2.55
2022-11-29T02:16:43.642Z,2.53
2022-11-29T02:18:07.745Z,2.51
2022-11-29T02:18:47.300Z,2.47
2022-11-29T02:19:38.010Z,2.46
2022-11-29T02:20:23.213Z,2.46
2022-11-29T02:21:05.528Z,2.44
2022-11-29T02:21:47.528Z,2.45
2022-11-29T02:22:58.498Z,2.45
2022-11-29T02:23:43.618Z,2.37
2022-11-29T02:24:25.750Z,2.35
2022-11-29T02:25:07.589Z,2.34
2022-11-29T02:26:01.852Z,2.36
2022-11-29T02:26:35.388Z,2.30
2022-11-29T02:27:17.183Z,2.30
2022-11-29T02:28:30.288Z,2.28
2022-11-29T02:29:21.923Z,2.21
2022-11-29T02:30:09.682Z,2.19
2022-11-29T02:30:45.966Z,2.19
2022-11-29T02:31:47.026Z,2.18
2022-11-29T02:32:41.500Z,2.14
2022-11-29T02:33:39.307Z,2.11
2022-11-29T02:34:18.522Z,2.05
2022-11-29T02:35:18.700Z,2.06
2022-11-29T02:36:00.929Z,2.02
2022-11-29T02:36:51.485Z,2.00
2022-11-29T02:37:34.433Z,2.01
2022-11-29T02:38:21.972Z,2.04
2022-11-29T02:39:14.434Z,2.03
2022-11-29T02:39:53.505Z,2.03
2022-11-29T02:40:45.204Z,2.05
2022-11-29T02:41:24.347Z,2.07
2022-11-29T02:42:18.838Z,2.09
2022-11-29T02:43:08.028Z,2.11
2022-11-29T02:43:58.078Z,2.13
2022-11-29T02:45:04.008Z,2.14
2022-11-29T02:45:43.173Z,2.14
2022-11-29T02:46:16.727Z,2.15
2022-11-29T02:46:49.956Z,2.17
2022-11-29T02:47:35.119Z,2.18
2022-11-29T02:48:29.789Z,2.18
2022-11-29T02:50:56.371Z,2.13
2022-11-29T02:51:58.058Z,2.09
2022-11-29T02:53:00.314Z,2.08
2022-11-29T02:53:53.413Z,2.06
2022-11-29T02:54:35.722Z,2.06
2022-11-29T02:55:17.749Z,2.06
2022-11-29T02:56:27.555Z,2.08
2022-11-29T02:57:24.578Z,2.09
2022-11-29T02:58:40.956Z,2.09
2022-11-29T02:59:39.249Z,2.09
2022-11-29T03:00:23.409Z,2.11
2022-11-29T03:01:38.718Z,2.11
2022-11-29T03:02:21.560Z,2.06
2022-11-29T03:03:10.839Z,2.12
2022-11-29T03:03:53.598Z,2.14
2022-11-29T03:04:41.202Z,2.15
2022-11-29T03:05:35.041Z,2.15
2022-11-29T03:06:36.894Z,2.14
2022-11-29T03:07:28.730Z,2.09
2022-11-29T03:08:34.320Z,2.06
2022-11-29T03:09:33.323Z,2.05
2022-11-29T03:10:31.237Z,2.06
2022-11-29T03:11:13.576Z,2.07
2022-11-29T03:12:24.564Z,2.10
2022-11-29T03:12:59.339Z,2.10
2022-11-29T03:14:03.505Z,2.12
2022-11-29T03:14:45.623Z,2.15
2022-11-29T03:15:47.793Z,2.17
2022-11-29T03:16:39.707Z,2.18
2022-11-29T03:17:27.833Z,2.19
2022-11-29T03:18:10.290Z,2.21
2022-11-29T03:19:06.054Z,2.21
2022-11-29T03:20:14.542Z,2.24
2022-11-29T03:21:31.695Z,2.24
2022-11-29T03:22:05.334Z,2.23
2022-11-29T03:23:00.062Z,2.25
2022-11-29T03:23:43.588Z,2.27
2022-11-29T03:24:28.356Z,2.29
2022-11-29T03:25:05.539Z,2.31
2022-11-29T03:26:05.131Z,2.33
2022-11-29T03:26:51.739Z,2.34
2022-11-29T03:27:52.710Z,2.35
2022-11-29T03:28:48.559Z,2.36
2022-11-29T03:29:30.178Z,2.36
2022-11-29T03:30:07.316Z,2.38
2022-11-29T03:30:46.240Z,2.40
2022-11-29T03:31:29.987Z,2.41
2022-11-29T03:32:15.933Z,2.43
2022-11-29T03:32:52.012Z,2.44
2022-11-29T03:33:43.871Z,2.45
2022-11-29T03:34:19.964Z,2.46
2022-11-29T03:35:05.672Z,2.47
2022-11-29T03:36:02.151Z,2.49
2022-11-29T03:36:59.384Z,2.49
2022-11-29T03:37:55.687Z,2.49
2022-11-29T03:38:46.485Z,2.49
2022-11-29T03:39:49.887Z,2.50
2022-11-29T03:40:49.041Z,2.46
2022-11-29T03:41:40.816Z,2.46
2022-11-29T03:42:39.929Z,2.47
2022-11-29T03:43:37.020Z,2.47
2022-11-29T03:44:16.425Z,2.49
2022-11-29T03:44:52.887Z,2.49
2022-11-29T03:45:36.691Z,2.50
2022-11-29T03:46:21.757Z,2.52
2022-11-29T03:47:02.033Z,2.51
2022-11-29T03:48:20.110Z,2.52
2022-11-29T03:49:03.863Z,2.51
2022-11-29T03:49:52.861Z,2.51
2022-11-29T03:50:34.003Z,2.52
2022-11-29T03:51:17.820Z,2.53
2022-11-29T03:52:20.066Z,2.53
2022-11-29T03:53:28.445Z,2.52
2022-11-29T03:54:11.123Z,2.52
2022-11-29T03:55:09.305Z,2.52
2022-11-29T03:55:53.902Z,2.51
2022-11-29T03:56:32.940Z,2.51
2022-11-29T03:57:07.249Z,2.53
2022-11-29T03:57:54.078Z,2.52
2022-11-29T03:58:32.765Z,2.54
2022-11-29T03:59:22.477Z,2.55
2022-11-29T04:00:14.117Z,2.55
2022-11-29T04:00:47.433Z,2.55
2022-11-29T04:01:48.595Z,2.56
2022-11-29T04:02:46.273Z,2.56
2022-11-29T04:03:47.216Z,2.55
2022-11-29T04:04:39.663Z,2.55
2022-11-29T04:05:44.172Z,2.55
2022-11-29T04:06:42.264Z,2.54
2022-11-29T04:07:37.535Z,2.55
2022-11-29T04:08:21.213Z,2.54
2022-11-29T04:09:42.161Z,2.55
2022-11-29T04:10:27.343Z,2.52
2022-11-29T04:11:16.215Z,2.53
2022-11-29T04:12:19.909Z,2.54
2022-11-29T04:13:07.444Z,2.53
2022-11-29T04:14:02.285Z,2.55
2022-11-29T04:15:19.841Z,2.56
2022-11-29T04:15:53.281Z,2.54
2022-11-29T04:16:39.304Z,2.55
2022-11-29T04:17:32.778Z,2.56
2022-11-29T04:18:14.819Z,2.57
2022-11-29T04:19:10.153Z,2.57
2022-11-29T04:20:23.592Z,2.58
2022-11-29T04:21:27.589Z,2.57
2022-11-29T04:22:25.908Z,2.56
2022-11-29T04:23:20.564Z,2.55
2022-11-29T04:24:15.216Z,2.56
2022-11-29T04:24:48.455Z,2.56
2022-11-29T04:25:40.922Z,2.58
2022-11-29T04:26:54.024Z,2.58
2022-11-29T04:27:48.829Z,2.56
2022-11-29T04:28:57.354Z,2.57
2022-11-29T04:29:39.773Z,2.55
2022-11-29T04:30:22.857Z,2.56
2022-11-29T04:31:33.427Z,2.57
2022-11-29T04:32:34.686Z,2.56
2022-11-29T04:33:16.801Z,2.55
2022-11-29T04:34:05.149Z,2.52
2022-11-29T04:34:48.619Z,2.52
2022-11-29T04:35:24.634Z,2.52
2022-11-29T04:36:33.028Z,2.53
2022-11-29T04:37:28.027Z,2.52
2022-11-29T04:38:31.237Z,2.51
2022-11-29T04:39:42.098Z,2.51
2022-11-29T04:41:12.462Z,2.50
2022-11-29T04:41:53.018Z,2.47
2022-11-29T04:42:38.399Z,2.48
2022-11-29T04:43:39.747Z,2.47
2022-11-29T04:44:36.368Z,2.48
2022-11-29T04:45:29.989Z,2.47
2022-11-29T04:46:24.104Z,2.47
2022-11-29T04:47:21.362Z,2.48
2022-11-29T04:47:54.612Z,2.49
2022-11-29T04:48:49.923Z,2.50
2022-11-29T04:49:34.384Z,2.50
2022-11-29T04:50:26.338Z,2.52
2022-11-29T04:51:12.539Z,2.51
2022-11-29T04:52:07.677Z,2.52
2022-11-29T04:53:09.746Z,2.53
2022-11-29T04:54:13.768Z,2.52
2022-11-29T04:55:17.618Z,2.51
2022-11-29T04:56:33.787Z,2.51
2022-11-29T04:57:22.223Z,2.51
2022-11-29T04:58:04.469Z,2.51
2022-11-29T04:59:18.120Z,2.52
2022-11-29T05:00:35.124Z,2.51
2022-11-29T05:01:11.226Z,2.50
2022-11-29T05:01:58.008Z,2.49
2022-11-29T05:02:41.361Z,2.51
2022-11-29T05:03:25.691Z,2.52
2022-11-29T05:04:22.054Z,2.53
2022-11-29T05:05:23.062Z,2.52
2022-11-29T05:06:10.897Z,2.50
2022-11-29T05:07:02.804Z,2.49
2022-11-29T05:07:44.883Z,2.49
2022-11-29T05:08:46.844Z,2.50
2022-11-29T05:09:44.514Z,2.49
2022-11-29T05:10:43.836Z,2.48
2022-11-29T05:11:53.684Z,2.49
2022-11-29T05:12:43.412Z,2.48
2022-11-29T05:13:40.183Z,2.48
2022-11-29T05:14:38.095Z,2.49
2022-11-29T05:15:29.870Z,2.49
2022-11-29T05:16:23.655Z,2.50
2022-11-29T05:17:27.426Z,2.47
2022-11-29T05:18:30.153Z,2.42
2022-11-29T05:19:25.339Z,2.40
2022-11-29T05:20:14.780Z,2.39
2022-11-29T05:21:07.452Z,2.39
2022-11-29T05:21:52.545Z,2.39
2022-11-29T05:23:02.006Z,2.40
2022-11-29T05:23:56.789Z,2.40
2022-11-29T05:24:48.252Z,2.39
2022-11-29T05:25:58.392Z,2.40
2022-11-29T05:26:34.098Z,2.38
2022-11-29T05:27:42.830Z,2.38
2022-11-29T05:28:58.915Z,2.37
2022-11-29T05:29:46.483Z,2.36
2022-11-29T05:30:22.372Z,2.35
2022-11-29T05:31:23.345Z,2.35
2022-11-29T05:32:16.328Z,2.35
2022-11-29T05:32:52.761Z,2.35
2022-11-29T05:33:44.424Z,2.35
2022-11-29T05:34:42.665Z,2.31
2022-11-29T05:35:42.770Z,2.30
2022-11-29T05:36:32.910Z,2.27
2022-11-29T05:37:21.565Z,2.26
2022-11-29T05:38:09.739Z,2.26
2022-11-29T05:38:55.149Z,2.26
2022-11-29T05:39:37.289Z,2.25
2022-11-29T05:40:48.088Z,2.26
2022-11-29T05:41:51.736Z,2.24
2022-11-29T05:42:49.517Z,2.21
2022-11-29T05:43:47.876Z,2.18
2022-11-29T05:44:48.032Z,2.16
2022-11-29T05:45:39.276Z,2.17
2022-11-29T05:46:44.503Z,2.14
2022-11-29T05:47:39.190Z,2.12
2022-11-29T05:48:35.973Z,2.11
2022-11-29T05:49:34.443Z,2.10
2022-11-29T05:50:10.967Z,2.11
2022-11-29T05:50:56.339Z,2.11
2022-11-29T05:51:29.738Z,2.12
2022-11-29T05:52:21.865Z,2.14
2022-11-29T05:53:11.743Z,2.15
2022-11-29T05:54:15.723Z,2.15
2022-11-29T05:55:10.678Z,2.14
2022-11-29T05:56:02.814Z,2.15
2022-11-29T05:57:08.345Z,2.16
2022-11-29T05:57:55.206Z,2.15
2022-11-29T05:58:53.084Z,2.16
2022-11-29T05:59:31.122Z,2.15
2022-11-29T06:00:07.757Z,2.16
2022-11-29T06:01:28.132Z,2.18
2022-11-29T06:02:24.607Z,2.17
2022-11-29T06:03:20.376Z,2.17
2022-11-29T06:04:23.072Z,2.18
2022-11-29T06:05:13.487Z,2.17
2022-11-29T06:05:54.854Z,2.17
2022-11-29T06:06:45.061Z,2.18
2022-11-29T06:07:21.979Z,2.19
2022-11-29T06:08:08.703Z,2.21
2022-11-29T06:09:08.742Z,2.21
2022-11-29T06:09:49.596Z,2.21
2022-11-29T06:10:32.994Z,2.21
2022-11-29T06:11:16.029Z,2.24
2022-11-29T06:12:05.935Z,2.25
2022-11-29T06:12:42.810Z,2.24
2022-11-29T06:13:43.082Z,2.23
2022-11-29T06:14:22.876Z,2.25
2022-11-29T06:15:11.947Z,2.26
2022-11-29T06:16:24.164Z,2.26
2022-11-29T06:17:02.060Z,2.25
2022-11-29T06:17:46.958Z,2.26
2022-11-29T06:18:47.584Z,2.27
2022-11-29T06:19:50.268Z,2.27
2022-11-29T06:20:35.462Z,2.25
2022-11-29T06:21:23.513Z,2.27
2022-11-29T06:22:29.707Z,2.27
2022-11-29T06:23:25.260Z,2.28
2022-11-29T06:24:27.852Z,2.28
2022-11-29T06:25:17.741Z,2.28
2022-11-29T06:26:30.098Z,2.28
2022-11-29T06:27:09.902Z,2.27
2022-11-29T06:28:07.896Z,2.29
2022-11-29T06:28:55.628Z,2.29
2022-11-29T06:29:33.158Z,2.30
2022-11-29T06:30:13.573Z,2.31
2022-11-29T06:30:53.565Z,2.32
2022-11-29T06:31:38.551Z,2.34
2022-11-29T06:32:29.884Z,2.35
2022-11-29T06:33:27.486Z,2.35
2022-11-29T06:34:27.602Z,2.33
2022-11-29T06:35:12.413Z,2.33
2022-11-29T06:35:51.457Z,2.35
2022-11-29T06:36:47.858Z,2.35
2022-11-29T06:37:32.013Z,2.34
2022-11-29T06:38:17.105Z,2.35
2022-11-29T06:38:50.644Z,2.36
2022-11-29T06:39:24.245Z,2.37
2022-11-29T06:39:57.681Z,2.38
2022-11-29T06:40:31.246Z,2.40
2022-11-29T06:41:04.788Z,2.41
2022-11-29T06:41:38.435Z,2.43
2022-11-29T06:42:11.869Z,2.43
2022-11-29T06:42:45.149Z,2.44
2022-11-29T06:43:18.706Z,2.46
2022-11-29T06:43:52.446Z,2.46
2022-11-29T06:44:26.220Z,2.47
2022-11-29T06:44:59.688Z,2.49
2022-11-29T06:45:33.323Z,2.51
2022-11-29T06:46:35.224Z,2.52
2022-11-29T06:47:29.178Z,2.51
2022-11-29T06:48:05.664Z,2.50
2022-11-29T06:49:07.953Z,2.51
2022-11-29T06:50:24.578Z,2.51
2022-11-29T06:51:06.507Z,2.49
2022-11-29T06:52:02.431Z,2.50
2022-11-29T06:52:46.383Z,2.50
2022-11-29T06:53:25.488Z,2.51
2022-11-29T06:54:12.391Z,2.52
2022-11-29T06:54:57.651Z,2.52
2022-11-29T06:55:31.162Z,2.52
2022-11-29T06:56:29.983Z,2.53
2022-11-29T06:57:26.832Z,2.54
2022-11-29T06:58:21.508Z,2.54
2022-11-29T06:59:30.804Z,2.54
2022-11-29T07:00:14.998Z,2.54
2022-11-29T07:01:00.112Z,2.55
2022-11-29T07:01:42.263Z,2.56
2022-11-29T07:02:46.974Z,2.57
2022-11-29T07:03:35.658Z,2.57
2022-11-29T07:04:23.965Z,2.58
2022-11-29T07:05:14.507Z,2.55
2022-11-29T07:05:47.998Z,2.56
2022-11-29T07:06:25.216Z,2.56
2022-11-29T07:06:58.903Z,2.58
2022-11-29T07:07:34.848Z,2.58
2022-11-29T07:08:19.191Z,2.61
2022-11-29T07:09:00.707Z,2.61
2022-11-29T07:09:35.750Z,2.61
2022-11-29T07:10:18.473Z,2.59
2022-11-29T07:10:55.057Z,2.60
2022-11-29T07:11:28.787Z,2.62
2022-11-29T07:12:02.586Z,2.63
2022-11-29T07:12:36.238Z,2.63
2022-11-29T07:13:13.543Z,2.63
2022-11-29T07:13:47.228Z,2.62
2022-11-29T07:14:20.789Z,2.65
2022-11-29T07:14:54.547Z,2.65
2022-11-29T07:15:28.375Z,2.64
2022-11-29T07:16:04.715Z,2.66
2022-11-29T07:16:59.025Z,2.66
2022-11-29T07:18:09.524Z,2.66
2022-11-29T07:18:55.193Z,2.64
2022-11-29T07:20:20.444Z,2.62
2022-11-29T07:21:14.288Z,2.61
2022-11-29T07:22:24.785Z,2.57
2022-11-29T07:23:07.221Z,2.60
2022-11-29T07:24:01.549Z,2.61
2022-11-29T07:24:59.384Z,2.61
2022-11-29T07:25:45.645Z,2.60
2022-11-29T07:26:29.708Z,2.60
2022-11-29T07:27:45.057Z,2.59
2022-11-29T07:28:36.378Z,2.57
2022-11-29T07:29:43.344Z,2.53
2022-11-29T07:30:34.975Z,2.50
2022-11-29T07:31:11.144Z,2.49
2022-11-29T07:32:03.278Z,2.52
2022-11-29T07:33:03.766Z,2.51
2022-11-29T07:34:00.524Z,2.50
2022-11-29T07:35:04.879Z,2.51
2022-11-29T07:36:12.685Z,2.50
2022-11-29T07:37:27.748Z,2.48
2022-11-29T07:38:06.727Z,2.47
2022-11-29T07:39:11.124Z,2.47
2022-11-29T07:40:07.008Z,2.48
2022-11-29T07:40:42.938Z,2.49
2022-11-29T07:41:25.232Z,2.51
2022-11-29T07:42:37.585Z,2.51
2022-11-29T07:43:28.980Z,2.52
2022-11-29T07:44:02.107Z,2.53
2022-11-29T07:44:49.169Z,2.53
2022-11-29T07:45:28.522Z,2.56
2022-11-29T07:46:02.093Z,2.57
2022-11-29T07:46:35.670Z,2.59
2022-11-29T07:47:09.262Z,2.61
2022-11-29T07:47:42.429Z,2.62
2022-11-29T07:48:18.273Z,2.64
2022-11-29T07:48:51.855Z,2.65
2022-11-29T07:49:25.368Z,2.66
2022-11-29T07:49:58.554Z,2.68
2022-11-29T07:50:32.239Z,2.70
2022-11-29T07:51:06.003Z,2.71
2022-11-29T07:51:39.492Z,2.72
2022-11-29T07:52:16.715Z,2.70
2022-11-29T07:52:50.175Z,2.73
2022-11-29T07:53:24.233Z,2.74
2022-11-29T07:53:57.536Z,2.75
2022-11-29T07:54:31.159Z,2.76
2022-11-29T07:55:05.348Z,2.77
2022-11-29T07:55:38.680Z,2.78
2022-11-29T07:56:16.543Z,2.79
2022-11-29T07:56:49.887Z,2.80
2022-11-29T07:57:23.159Z,2.82
2022-11-29T07:57:56.995Z,2.83
2022-11-29T07:58:30.274Z,2.86
2022-11-29T07:59:03.762Z,2.86
2022-11-29T07:59:37.143Z,2.88
2022-11-29T08:00:11.431Z,2.88
2022-11-29T08:00:47.570Z,2.91
2022-11-29T08:01:20.948Z,2.92
2022-11-29T08:01:55.390Z,2.91
2022-11-29T08:02:30.452Z,2.95
2022-11-29T08:03:05.184Z,2.94
2022-11-29T08:03:38.440Z,2.95
2022-11-29T08:04:11.800Z,2.95
2022-11-29T08:04:45.353Z,2.97
2022-11-29T08:05:19.380Z,2.97
2022-11-29T08:05:52.930Z,2.97
2022-11-29T08:06:26.816Z,2.98
2022-11-29T08:07:01.272Z,2.98
2022-11-29T08:07:37.005Z,3.01
2022-11-29T08:08:10.513Z,3.02
2022-11-29T08:08:44.338Z,3.03
2022-11-29T08:09:18.248Z,3.04
2022-11-29T08:09:51.638Z,3.05
2022-11-29T08:10:25.253Z,3.06
2022-11-29T08:10:58.474Z,3.09
2022-11-29T08:11:31.816Z,3.11
2022-11-29T08:12:05.498Z,3.12
2022-11-29T08:12:46.840Z,3.14
2022-11-29T08:13:21.176Z,3.12
2022-11-29T08:14:02.365Z,3.14
2022-11-29T08:14:35.577Z,3.16
2022-11-29T08:15:09.874Z,3.13
2022-11-29T08:15:47.138Z,3.12
2022-11-29T08:16:20.440Z,3.13
2022-11-29T08:16:53.874Z,3.14
2022-11-29T08:17:27.280Z,3.16
2022-11-29T08:18:02.386Z,3.19
2022-11-29T08:18:38.334Z,3.21
2022-11-29T08:19:11.533Z,3.22
2022-11-29T08:19:45.386Z,3.23
2022-11-29T08:20:18.848Z,3.24
2022-11-29T08:20:52.047Z,3.25
2022-11-29T08:21:25.343Z,3.26
2022-11-29T08:21:59.216Z,3.26
2022-11-29T08:22:32.493Z,3.28
2022-11-29T08:23:05.639Z,3.29
2022-11-29T08:23:38.804Z,3.30
2022-11-29T08:24:12.146Z,3.32
2022-11-29T08:24:45.668Z,3.33
2022-11-29T08:25:19.022Z,3.34
2022-11-29T08:26:02.954Z,3.33
2022-11-29T08:26:36.353Z,3.33
2022-11-29T08:27:09.776Z,3.34
2022-11-29T08:27:43.017Z,3.34
2022-11-29T08:28:16.407Z,3.37
2022-11-29T08:28:52.361Z,3.37
2022-11-29T08:29:25.701Z,3.36
2022-11-29T08:29:59.221Z,3.37
2022-11-29T08:30:32.508Z,3.39
2022-11-29T08:31:08.342Z,3.38
2022-11-29T08:31:41.995Z,3.39
2022-11-29T08:32:15.356Z,3.39
2022-11-29T08:32:51.596Z,3.39
2022-11-29T08:33:25.250Z,3.40
2022-11-29T08:33:58.509Z,3.39
2022-11-29T08:34:32.083Z,3.40
2022-11-29T08:35:05.721Z,3.41
2022-11-29T08:35:40.141Z,3.42
2022-11-29T08:36:19.137Z,3.42
2022-11-29T08:36:55.614Z,3.43
2022-11-29T08:37:28.889Z,3.43
2022-11-29T08:38:04.584Z,3.45
2022-11-29T08:38:38.039Z,3.44
2022-11-29T08:39:11.353Z,3.41
2022-11-29T08:39:44.671Z,3.43
2022-11-29T08:40:18.552Z,3.44
2022-11-29T08:40:51.789Z,3.45
2022-11-29T08:41:27.584Z,3.45
2022-11-29T08:42:01.031Z,3.47
2022-11-29T08:42:34.675Z,3.49
2022-11-29T08:43:08.054Z,3.50
2022-11-29T08:43:42.316Z,3.51
2022-11-29T08:44:15.697Z,3.54
2022-11-29T08:44:49.126Z,3.53
2022-11-29T08:45:22.574Z,3.51
2022-11-29T08:46:00.258Z,3.52
2022-11-29T08:46:52.833Z,3.52
2022-11-29T08:47:38.557Z,3.51
2022-11-29T08:48:14.091Z,3.50
2022-11-29T08:48:48.454Z,3.49
2022-11-29T08:49:21.712Z,3.53
2022-11-29T08:50:04.223Z,3.54
2022-11-29T08:50:37.471Z,3.54
2022-11-29T08:51:10.773Z,3.54
2022-11-29T08:51:44.810Z,3.56
2022-11-29T08:52:36.838Z,3.56
2022-11-29T08:53:28.538Z,3.56
2022-11-29T08:54:01.949Z,3.55
2022-11-29T08:54:35.230Z,3.56
2022-11-29T08:55:09.092Z,3.56
2022-11-29T08:55:46.815Z,3.59
2022-11-29T08:57:10.035Z,3.60
2022-11-29T08:57:39.138Z,3.58
2022-11-29T08:58:10.316Z,3.56
2022-11-29T08:58:43.586Z,3.56
2022-11-29T08:59:16.805Z,3.56
2022-11-29T08:59:49.990Z,3.58
2022-11-29T09:00:23.604Z,3.59
2022-11-29T09:00:57.247Z,3.61
2022-11-29T09:01:30.919Z,3.63
2022-11-29T09:02:04.353Z,3.65
2022-11-29T09:02:39.569Z,3.65
2022-11-29T09:03:33.120Z,3.69
2022-11-29T09:04:07.995Z,3.69
2022-11-29T09:04:41.233Z,3.69
2022-11-29T09:05:15.302Z,3.73
2022-11-29T09:05:48.587Z,3.75
2022-11-29T09:06:21.816Z,3.77
2022-11-29T09:06:55.023Z,3.77
2022-11-29T09:07:28.372Z,3.79
2022-11-29T09:08:01.881Z,3.81
2022-11-29T09:08:35.383Z,3.84
2022-11-29T09:09:08.878Z,3.86
2022-11-29T09:09:42.370Z,3.86
2022-11-29T09:10:15.619Z,3.87
2022-11-29T09:10:51.789Z,3.88
2022-11-29T09:11:26.995Z,3.89
2022-11-29T09:12:00.536Z,3.87
2022-11-29T09:12:39.051Z,3.85
2022-11-29T09:13:12.610Z,3.87
2022-11-29T09:13:47.994Z,3.88
2022-11-29T09:14:23.080Z,3.87
2022-11-29T09:14:56.347Z,3.88
2022-11-29T09:15:29.595Z,3.89
2022-11-29T09:16:07.922Z,3.90
2022-11-29T09:16:41.253Z,3.90
2022-11-29T09:17:14.532Z,3.89
2022-11-29T09:17:47.861Z,3.92
2022-11-29T09:18:22.827Z,3.92
2022-11-29T09:18:56.829Z,3.93
2022-11-29T09:19:30.093Z,3.93
2022-11-29T09:20:04.450Z,3.94
2022-11-29T09:20:37.898Z,3.95
2022-11-29T09:21:15.433Z,3.97
2022-11-29T09:21:48.605Z,3.97
2022-11-29T09:22:21.846Z,3.97
2022-11-29T09:22:55.081Z,3.97
2022-11-29T09:23:31.478Z,3.98
2022-11-29T09:24:06.724Z,3.99
2022-11-29T09:24:39.961Z,3.99
2022-11-29T09:25:13.174Z,4.00
2022-11-29T09:25:49.954Z,4.00
2022-11-29T09:26:23.707Z,4.00
2022-11-29T09:26:56.959Z,4.01
2022-11-29T09:27:31.218Z,4.02
2022-11-29T09:28:05.204Z,4.02
2022-11-29T09:28:38.637Z,4.02
2022-11-29T09:29:11.920Z,4.01
2022-11-29T09:29:45.224Z,4.01
2022-11-29T09:30:23.485Z,3.99
2022-11-29T09:31:05.003Z,4.00
2022-11-29T09:31:38.243Z,3.98
2022-11-29T09:32:11.644Z,3.94